Long Lake, NY (12847)

12:41 AM EDT on September 04, 2015 (GMT -0400)
Plumley's Garage | | Change Station
CLOSE
Current Station
Personal Weather Station
Location: Long Lake, NY
Elevation: 1650 ft
Nearby Weather Stations

Elev 1650 ft 43.97 °N, 74.42 °W | Updated 18 seconds ago

Clear
Clear
61.3 °F
Feels Like 61.3 °F
N
0.0
Wind Variable Wind from NE
Gusts 0.0 mph

Today
High -- | Low -- °F
--% Chance of Precip.
Yesterday
High -- | Low -- °F
Precip. -- in
6:24 AM 7:28 PM
Waning Gibbous, 63% visible
Pressure 30.06 in
Visibility 0.8 miles
Clouds
Dew Point 53 °F
Humidity 75%
Rainfall 0.00 in
Snow Depth Not available.
UV Not available.
Pollen 8.00 out of 12
Air Quality Not available.
Flu Activity Not available.
SPECI KSLK 040429Z AUTO 00000KT 3/4SM BR VV002 09/09 A3006 RMK AO2 T00940094 $
Pressure 30.06 in
Visibility 0.8 miles
Clouds
Dew Point 53 °F
Humidity 75%
Rainfall 0.00 in
Snow Depth Not available.
UV Not available.
Pollen 8.00 out of 12
Air Quality Not available.
Flu Activity Not available.
SPECI KSLK 040429Z AUTO 00000KT 3/4SM BR VV002 09/09 A3006 RMK AO2 T00940094 $

10-Day Weather Forecast

×

Almanac

Astronomy

Sep. 04, 2015 Rise Set
Actual Time
Civil Twilight
Nautical Twilight
Astronomical Twilight
Moon
Length of Visible Light
Length of Day
Tomorrow will be .
, % of the Moon is Illuminated

Today's Extremes

State Highs State Lows

Community

WunderPhotos

Upload Photos

1,852,129 photos uploaded!

WunderBlogs® & News

Nearby

Air Quality

  Air Quality AQ Index Pollutant
Not available.

Snow Depth

Station Depth Elevation

Earthquake Activity

City Distance Mag. Time & Date
Minimum magnitude displayed is 2.5.

Coastal Water Temperatures

Place Temperature

Stations

Nearby Weather Stations

Station Location Temp. Windchill Dew Point Humidity Wind Precip. Elev Updated Type